Data for 01/14/2010

Time Sea-Level Adjusted Pressure Absolute Pressure Temperature Relative Humidity Dew Point   
(mb) (inHg) (mb) (inHg) (C) (F) (%) (C) (F)
00:05 1018 30.06 847 25.01 1.3 34.3 68 -4 24.8
00:10 1018 30.06 847 25.01 1.4 34.5 67 -4.1 24.6
00:15 1018 30.06 847 25.01 1.6 34.9 66 -4.1 24.6
00:20 1018 30.06 847 25.01 1.7 35 67 -3.9 25.1
00:25 1018 30.06 847 25.01 1.4 34.5 69 -3.6 25.4
00:30 1018 30.06 847 25.01 1.4 34.4 67 -4.1 24.6
00:35 1018 30.06 847 25.01 2 35.6 64 -4 24.7
00:40 1018 30.06 847 25.01 2.2 35.9 65 -3.8 25.2
00:45 1018 30.06 847 25.01 1.8 35.2 67 -3.7 25.4
00:50 1018 30.06 847 25.01 1.7 35.1 66 -3.9 25
00:55 1018 30.06 847 25.01 2.2 35.9 66 -3.6 25.5
01:00 1018 30.06 847 25.01 2.3 36.1 66 -3.5 25.7
01:05 1018 30.06 847 25.01 2.2 35.9 65 -3.7 25.3
01:10 1018 30.06 847 25.01 2.4 36.2 63 -3.9 24.9
01:15 1018 30.06 847 25.01 2.3 36.2 64 -3.9 25
01:20 1018 30.06 847 25.01 2.1 35.8 65 -3.9 25
01:25 1018 30.06 847 25.01 1.9 35.4 66 -3.8 25.1
01:30 1018 30.06 847 25.01 1.8 35.2 66 -3.9 24.9
01:35 1018 30.06 847 25.01 1.9 35.4 65 -3.9 24.9
01:40 1018 30.06 847 25.01 2 35.5 67 -3.6 25.5
01:45 1018 30.06 847 25.01 1.9 35.4 65 -3.9 25
01:50 1018 30.06 847 25.01 2 35.5 66 -3.7 25.4
01:55 1018 30.06 848 25.04 1.9 35.5 67 -3.5 25.6
02:00 1018 30.06 848 25.04 1.9 35.4 68 -3.5 25.7
02:05 1019 30.09 848 25.04 1.9 35.5 69 -3.2 26.2
02:10 1019 30.09 848 25.04 2 35.5 68 -3.3 26.1
02:15 1019 30.09 848 25.04 1.9 35.5 69 -3.1 26.3
02:20 1019 30.09 848 25.04 1.8 35.2 70 -3.1 26.4
02:25 1019 30.09 848 25.04 1.8 35.2 72 -2.8 26.9
02:30 1019 30.09 848 25.04 1.5 34.7 73 -2.8 27
02:35 1019 30.09 848 25.04 1.4 34.5 73 -3 26.6
02:40 1019 30.09 848 25.04 1.1 34 75 -2.9 26.8
02:45 1019 30.09 848 25.04 0.9 33.6 75 -3 26.5
02:50 1019 30.09 849 25.07 0.9 33.6 75 -3.1 26.4
02:55 1019 30.09 849 25.07 0.8 33.5 74 -3.3 26.1
03:00 1019 30.09 849 25.07 1.1 34 72 -3.4 25.9
03:05 1019 30.09 849 25.07 1.3 34.4 72 -3.1 26.4
03:10 1019 30.09 849 25.07 1.5 34.6 72 -3 26.5
03:15 1020 30.12 849 25.07 1.4 34.5 73 -3 26.6
03:20 1020 30.12 849 25.07 1.4 34.5 73 -2.8 26.9
03:25 1020 30.12 849 25.07 1.3 34.4 74 -2.8 26.9
03:30 1020 30.12 849 25.07 1.5 34.7 75 -2.5 27.4
03:35 1020 30.12 849 25.07 1.6 35 75 -2.4 27.7
03:40 1020 30.12 849 25.07 1.7 35 75 -2.2 28
03:45 1020 30.12 849 25.07 1.7 35 76 -2 28.3
03:50 1020 30.12 849 25.07 1.8 35.2 77 -1.8 28.8
03:55 1020 30.12 849 25.07 1.8 35.3 79 -1.4 29.4
04:00 1020 30.12 849 25.07 1.8 35.2 81 -1.2 29.9
04:05 1020 30.12 849 25.07 1.7 35.1 82 -1 30.2
04:10 1020 30.12 849 25.07 1.7 35 84 -0.8 30.6
04:15 1020 30.12 849 25.07 1.5 34.7 85 -0.7 30.8
04:20 1020 30.12 849 25.07 1.4 34.5 87 -0.6 31
04:25 1020 30.12 849 25.07 1.1 34.1 89 -0.5 31.2
04:30 1020 30.12 849 25.07 1 33.8 90 -0.4 31.2
04:35 1020 30.12 849 25.07 0.9 33.6 91 -0.4 31.3
04:40 1020 30.12 849 25.07 0.9 33.7 91 -0.3 31.4
04:45 1020 30.12 850 25.1 1 33.8 91 -0.3 31.5
04:50 1020 30.12 850 25.1 0.9 33.6 91 -0.4 31.3
04:55 1020 30.12 850 25.1 0.8 33.4 92 -0.3 31.4
05:00 1020 30.12 850 25.1 0.7 33.3 93 -0.3 31.5
05:05 1021 30.15 850 25.1 0.7 33.2 94 -0.2 31.6
05:10 1021 30.15 850 25.1 0.7 33.2 94 -0.2 31.6
05:15 1021 30.15 850 25.1 0.4 32.8 95 -0.2 31.6
05:20 1021 30.15 850 25.1 0.3 32.6 96 -0.3 31.4
05:25 1021 30.15 850 25.1 0.3 32.6 96 -0.2 31.6
05:30 1021 30.15 850 25.1 0.4 32.7 96 -0.2 31.6
05:35 1021 30.15 850 25.1 0.3 32.6 96 -0.2 31.6
05:40 1021 30.15 850 25.1 0.3 32.5 96 -0.3 31.5
05:45 1021 30.15 850 25.1 0.2 32.4 97 -0.3 31.5
05:50 1021 30.15 850 25.1 0.1 32.3 97 -0.3 31.5
05:55 1021 30.15 850 25.1 0.2 32.3 97 -0.2 31.6
06:00 1021 30.15 850 25.1 0.2 32.3 97 -0.2 31.6
06:05 1021 30.15 850 25.1 0.2 32.4 97 -0.2 31.7
06:10 1021 30.15 850 25.1 0.2 32.4 97 -0.2 31.7
06:15 1021 30.15 850 25.1 0.2 32.4 98 -0.1 31.8
06:20 1021 30.15 850 25.1 0.4 32.7 98 0 32.1
06:25 1021 30.15 850 25.1 0.4 32.8 97 0 32.1
06:30 1021 30.15 850 25.1 0.4 32.8 97 0 32
06:35 1021 30.15 850 25.1 0.5 32.8 97 0.1 32.1
06:40 1021 30.15 851 25.13 0.5 33 97 0.1 32.2
06:45 1021 30.15 851 25.13 0.6 33 97 0.1 32.3
06:50 1021 30.15 851 25.13 0.6 33 97 0.1 32.2
06:55 1021 30.15 851 25.13 0.5 33 97 0.1 32.2
07:00 1021 30.15 851 25.13 0.6 33.1 97 0.1 32.3
07:05 1022 30.18 851 25.13 0.7 33.2 96 0.1 32.3
07:10 1022 30.18 851 25.13 0.5 33 96 0 32.1
07:15 1021 30.15 851 25.13 0.6 33 96 0 32.1
07:20 1022 30.18 851 25.13 0.5 32.9 96 0 32
07:25 1022 30.18 851 25.13 0.5 32.9 97 -0 32
07:30 1022 30.18 851 25.13 0.5 32.8 97 -0 32
07:35 1022 30.18 851 25.13 0.5 32.9 97 0 32
07:40 1022 30.18 851 25.13 0.5 32.9 97 0.1 32.1
07:45 1022 30.18 851 25.13 0.6 33 97 0.1 32.1
07:50 1022 30.18 851 25.13 0.5 33 96 0 32.1
07:55 1022 30.18 851 25.13 0.5 32.9 97 0 32.1
08:00 1022 30.18 851 25.13 0.6 33.1 97 0.2 32.3
08:05 1022 30.18 851 25.13 0.8 33.5 96 0.3 32.5
08:10 1022 30.18 851 25.13 1.1 34 93 0.2 32.3
08:15 1022 30.18 851 25.13 1 33.9 93 0 32.1
08:20 1022 30.18 851 25.13 1.2 34.2 92 0 32
08:25 1022 30.18 851 25.13 1.4 34.5 91 0.1 32.2
08:30 1022 30.18 851 25.13 1.9 35.3 85 -0.4 31.3
08:35 1022 30.18 851 25.13 2.4 36.3 83 -0.2 31.6
08:40 1022 30.18 851 25.13 2.5 36.6 81 -0.4 31.3
08:45 1022 30.18 851 25.13 2.6 36.6 81 -0.4 31.2
08:50 1022 30.18 851 25.13 2.5 36.5 80 -0.5 31
08:55 1022 30.18 851 25.13 2.5 36.5 81 -0.4 31.3
09:00 1022 30.18 851 25.13 2.5 36.5 81 -0.4 31.4
09:05 1022 30.18 852 25.16 2.5 36.5 83 -0 31.9
09:10 1022 30.18 852 25.16 2.1 35.8 87 0.2 32.3
09:15 1022 30.18 852 25.16 1.6 35 91 0.3 32.5
09:20 1023 30.21 852 25.16 1.5 34.7 91 0.1 32.3
09:25 1023 30.21 852 25.16 1.8 35.2 86 -0.3 31.5
09:30 1023 30.21 852 25.16 2.3 36.1 83 -0.3 31.5
09:35 1023 30.21 852 25.16 2.4 36.4 86 0.4 32.6
09:40 1023 30.21 852 25.16 2.2 36 88 0.4 32.7
09:45 1023 30.21 852 25.16 2.5 36.5 85 0.2 32.4
09:50 1023 30.21 852 25.16 3.2 37.7 82 0.5 32.8
09:55 1023 30.21 852 25.16 3.6 38.4 81 0.6 33.1
10:00 1023 30.21 852 25.16 3.7 38.6 82 0.9 33.7
10:05 1023 30.21 852 25.16 2.8 37.1 85 0.6 33.1
10:10 1023 30.21 852 25.16 2.8 37.1 85 0.5 32.9
10:15 1023 30.21 852 25.16 3 37.4 81 0.1 32.2
10:20 1023 30.21 852 25.16 2.9 37.2 82 0.2 32.3
10:25 1023 30.21 853 25.19 3.1 37.6 82 0.4 32.7
10:30 1023 30.21 853 25.19 3.2 37.8 81 0.3 32.6
10:35 1023 30.21 853 25.19 3.4 38 81 0.4 32.7
10:40 1023 30.21 853 25.19 3.3 38 81 0.4 32.7
10:45 1023 30.21 853 25.19 3.2 37.8 81 0.3 32.5
10:50 1023 30.21 853 25.19 3.2 37.8 79 0 32.1
10:55 1023 30.21 853 25.19 3.7 38.7 75 -0.3 31.5
11:00 1023 30.21 853 25.19 4.3 39.7 74 0.1 32.2
11:05 1023 30.21 853 25.19 4 39.2 77 0.3 32.5
11:10 1023 30.21 853 25.19 4.3 39.7 74 0.1 32.2
11:15 1023 30.21 853 25.19 4.7 40.4 70 -0.3 31.5
11:20 1023 30.21 853 25.19 4.5 40.1 75 0.5 33
11:25 1023 30.21 853 25.19 3.5 38.4 76 -0.3 31.4
11:30 1023 30.21 853 25.19 3.9 39 76 0.1 32.2
11:35 1023 30.21 852 25.16 2.9 37.3 79 -0.4 31.3
11:40 1023 30.21 852 25.16 3.1 37.6 76 -0.6 30.9
11:45 1023 30.21 852 25.16 4.3 39.8 72 -0.3 31.5
11:50 1023 30.21 852 25.16 5.3 41.5 67 -0.3 31.4
11:55 1023 30.21 852 25.16 5 41 70 -0 31.9
12:00 1023 30.21 852 25.16 5.2 41.4 67 -0.4 31.3
12:05 1023 30.21 852 25.16 6.2 43.2 62 -0.5 31.1
12:10 1023 30.21 852 25.16 6.6 44 62 -0.2 31.7
12:15 1023 30.21 852 25.16 6.9 44.3 61 -0.2 31.7
12:20 1023 30.21 852 25.16 7.2 44.9 60 -0.1 31.8
12:25 1023 30.21 852 25.16 7.1 44.8 56 -1 30.2
12:30 1023 30.21 852 25.16 7.1 44.7 58 -0.6 31
12:35 1023 30.21 852 25.16 6.5 43.7 61 -0.4 31.4
12:40 1022 30.18 852 25.16 6.6 43.9 59 -0.8 30.6
12:45 1022 30.18 852 25.16 6.4 43.5 62 -0.4 31.3
12:50 1022 30.18 851 25.13 6.6 43.8 57 -1.3 29.6
12:55 1022 30.18 851 25.13 6.7 44.1 61 -0.3 31.4
13:00 1022 30.18 851 25.13 5.3 41.5 65 -0.7 30.8
13:05 1022 30.18 851 25.13 6.2 43.1 58 -1.6 29.1
13:10 1022 30.18 851 25.13 6.4 43.5 60 -0.7 30.7
13:15 1022 30.18 851 25.13 6.1 43.1 61 -0.9 30.4
13:20 1022 30.18 851 25.13 6.4 43.6 59 -0.9 30.4
13:25 1022 30.18 851 25.13 5.7 42.2 64 -0.6 30.9
13:30 1022 30.18 851 25.13 6 42.9 62 -0.8 30.6
13:35 1022 30.18 851 25.13 5.9 42.5 63 -0.7 30.8
13:40 1022 30.18 851 25.13 5 41.1 67 -0.6 30.9
13:45 1022 30.18 851 25.13 5.4 41.8 63 -1.1 30
13:50 1022 30.18 851 25.13 5.5 41.9 62 -1.3 29.7
13:55 1022 30.18 851 25.13 6 42.8 60 -1.1 30
14:00 1022 30.18 851 25.13 5.9 42.7 60 -1.3 29.6
14:05 1022 30.18 852 25.16 6.1 42.9 60 -1.2 29.9
14:10 1022 30.18 852 25.16 6 42.8 60 -1.1 29.9
14:15 1022 30.18 852 25.16 5.9 42.6 62 -0.8 30.5
14:20 1022 30.18 852 25.16 5.6 42 62 -1 30.1
14:25 1022 30.18 852 25.16 5.1 41.2 68 -0.3 31.4
14:30 1022 30.18 852 25.16 4.5 40.2 69 -0.6 31
14:35 1023 30.21 852 25.16 3.9 38.9 75 -0.1 31.8
14:40 1023 30.21 852 25.16 3 37.4 77 -0.6 30.9
14:45 1023 30.21 852 25.16 2.8 37 76 -1 30.2
14:50 1023 30.21 852 25.16 3 37.5 74 -1.2 29.8
14:55 1023 30.21 852 25.16 3.4 38.2 71 -1.3 29.7
15:00 1023 30.21 852 25.16 3.8 38.9 68 -1.5 29.3
15:05 1023 30.21 852 25.16 4 39.2 69 -1.2 29.9
15:10 1023 30.21 852 25.16 3.9 39 68 -1.4 29.4
15:15 1023 30.21 852 25.16 4.4 39.9 66 -1.3 29.6
15:20 1023 30.21 852 25.16 4.5 40.2 67 -1 30.2
15:25 1023 30.21 852 25.16 3.6 38.5 70 -1.4 29.5
15:30 1023 30.21 852 25.16 3.3 37.9 70 -1.6 29.1
15:35 1023 30.21 853 25.19 3.2 37.8 71 -1.5 29.3
15:40 1023 30.21 853 25.19 3.4 38.1 70 -1.5 29.3
15:45 1023 30.21 853 25.19 3.3 37.9 70 -1.6 29.1
15:50 1024 30.24 853 25.19 3.6 38.4 69 -1.6 29
15:55 1024 30.24 853 25.19 4.1 39.3 66 -1.7 29
16:00 1024 30.24 853 25.19 4.3 39.7 67 -1.4 29.5
16:05 1024 30.24 853 25.19 4.3 39.7 67 -1.4 29.5
16:10 1024 30.24 853 25.19 4.2 39.5 67 -1.4 29.4
16:15 1024 30.24 853 25.19 4.2 39.6 67 -1.3 29.7
16:20 1024 30.24 853 25.19 4.2 39.6 68 -1.1 29.9
16:25 1024 30.24 853 25.19 4.1 39.4 68 -1.2 29.8
16:30 1024 30.24 853 25.19 4 39.1 66 -1.7 28.9
16:35 1024 30.24 853 25.19 3.9 38.9 67 -1.6 29
16:40 1024 30.24 853 25.19 3.7 38.6 66 -2 28.4
16:45 1024 30.24 853 25.19 3.6 38.6 68 -1.7 29
16:50 1024 30.24 853 25.19 3.4 38.1 69 -1.8 28.8
16:55 1024 30.24 853 25.19 3.5 38.2 68 -1.8 28.7
17:00 1024 30.24 853 25.19 3.6 38.5 66 -2.1 28.2
17:05 1024 30.24 853 25.19 3.6 38.4 67 -1.9 28.5
17:10 1024 30.24 853 25.19 3.6 38.4 68 -1.8 28.7
17:15 1024 30.24 853 25.19 3.5 38.3 66 -2.2 28
17:20 1024 30.24 853 25.19 3.6 38.4 62 -2.9 26.7
17:25 1024 30.24 853 25.19 3.6 38.4 62 -2.9 26.7
17:30 1024 30.24 853 25.19 3.6 38.5 61 -3.2 26.2
17:35 1024 30.24 853 25.19 3.8 38.9 58 -3.6 25.4
17:40 1024 30.24 853 25.19 4 39.2 57 -3.7 25.4
17:45 1024 30.24 853 25.19 4.1 39.4 56 -4 24.8
17:50 1024 30.24 853 25.19 4 39.3 56 -4.1 24.7
17:55 1024 30.24 853 25.19 3.9 39 56 -4.2 24.4
18:00 1024 30.24 853 25.19 3.7 38.7 55 -4.5 24
18:05 1024 30.24 853 25.19 3.7 38.7 55 -4.5 23.9
18:10 1024 30.24 853 25.19 3.7 38.6 57 -4.1 24.6
18:15 1024 30.24 853 25.19 3.2 37.7 59 -4.1 24.6
18:20 1024 30.24 853 25.19 2.8 37 60 -4.1 24.6
18:25 1024 30.24 853 25.19 2.7 36.8 60 -4.3 24.3
18:30 1024 30.24 853 25.19 2.6 36.7 61 -4.2 24.4
18:35 1024 30.24 853 25.19 2.3 36.1 66 -3.4 25.8
18:40 1024 30.24 853 25.19 1.9 35.4 69 -3.1 26.3
18:45 1024 30.24 853 25.19 1.5 34.7 71 -3.3 26.1
18:50 1024 30.24 853 25.19 1.5 34.8 68 -3.7 25.3
18:55 1024 30.24 853 25.19 1.5 34.8 65 -4.4 24.1
19:00 1023 30.21 853 25.19 1.6 34.8 67 -3.9 24.9
19:05 1024 30.24 853 25.19 1.2 34.1 66 -4.5 24
19:10 1023 30.21 853 25.19 0.8 33.5 67 -4.5 23.9
19:15 1024 30.24 853 25.19 0.5 33 67 -4.8 23.3
19:20 1024 30.24 853 25.19 0.7 33.3 67 -4.8 23.4
19:25 1024 30.24 853 25.19 0.6 33 72 -3.9 25
19:30 1024 30.24 853 25.19 0.4 32.7 73 -3.9 25
19:35 1024 30.24 853 25.19 0.4 32.7 72 -4.1 24.6
19:40 1024 30.24 853 25.19 0.4 32.7 72 -4.1 24.7
19:45 1024 30.24 853 25.19 0.3 32.6 72 -4.1 24.7
19:50 1024 30.24 853 25.19 0.4 32.8 73 -3.9 25
19:55 1024 30.24 853 25.19 -0.2 31.7 76 -3.9 25
20:00 1024 30.24 853 25.19 -0.6 31 77 -4.1 24.7
20:05 1024 30.24 853 25.19 -0.5 31.1 76 -4.2 24.4
20:10 1024 30.24 853 25.19 -0.5 31.1 76 -4.2 24.4
20:15 1024 30.24 853 25.19 -0.1 31.8 71 -4.7 23.6
20:20 1024 30.24 853 25.19 0.4 32.8 70 -4.4 24.2
20:25 1024 30.24 853 25.19 0.2 32.4 72 -4.2 24.5
20:30 1024 30.24 853 25.19 -0.3 31.5 74 -4.4 24.1
20:35 1023 30.21 853 25.19 -0.4 31.3 74 -4.5 23.9
20:40 1023 30.21 853 25.19 0.1 32.2 71 -4.6 23.7
20:45 1023 30.21 853 25.19 0.3 32.6 69 -4.7 23.6
20:50 1023 30.21 853 25.19 0.7 33.3 68 -4.5 23.8
20:55 1023 30.21 853 25.19 -0.4 31.3 75 -4.2 24.4
21:00 1023 30.21 853 25.19 -1 30.1 76 -4.8 23.3
21:05 1023 30.21 852 25.16 -0.8 30.5 73 -5 23
21:10 1023 30.21 852 25.16 -0.2 31.7 70 -5.1 22.8
21:15 1023 30.21 852 25.16 0.4 32.7 67 -5 23
21:20 1023 30.21 852 25.16 0.1 32.2 70 -4.7 23.6
21:25 1023 30.21 852 25.16 -0.8 30.5 74 -5 23.1
21:30 1023 30.21 852 25.16 -1.2 29.9 75 -5.1 22.9
21:35 1023 30.21 852 25.16 -1.4 29.4 75 -5.3 22.5
21:40 1023 30.21 852 25.16 -1.1 30.1 72 -5.5 22.1
21:45 1023 30.21 852 25.16 -0.6 30.9 69 -5.6 22
21:50 1023 30.21 852 25.16 -0.3 31.5 70 -5.2 22.7
21:55 1023 30.21 852 25.16 -0.7 30.7 71 -5.3 22.4
22:00 1023 30.21 852 25.16 -0.9 30.4 72 -5.4 22.3
22:05 1023 30.21 852 25.16 -0.9 30.3 72 -5.4 22.2
22:10 1023 30.21 852 25.16 -1 30.1 72 -5.5 22.2
22:15 1023 30.21 852 25.16 -1 30.2 71 -5.6 21.9
22:20 1023 30.21 852 25.16 -1.1 30 73 -5.4 22.3
22:25 1023 30.21 852 25.16 -1.7 28.9 75 -5.6 22
22:30 1023 30.21 852 25.16 -1.6 29.1 73 -5.9 21.4
22:35 1023 30.21 852 25.16 -1.1 30 73 -5.3 22.4
22:40 1023 30.21 852 25.16 -1.2 29.8 73 -5.5 22.1
22:45 1023 30.21 852 25.16 -1.4 29.5 72 -5.7 21.7
22:50 1023 30.21 852 25.16 -1.5 29.3 72 -5.9 21.4
22:55 1023 30.21 853 25.19 -1.6 29.1 74 -5.7 21.7
23:00 1023 30.21 853 25.19 -1.8 28.7 73 -5.9 21.3
23:05 1023 30.21 853 25.19 -1.6 29.2 71 -6.1 21
23:10 1023 30.21 853 25.19 -1.3 29.6 71 -6 21.2
23:15 1024 30.24 853 25.19 -1.4 29.4 71 -6 21.1
23:20 1024 30.24 853 25.19 -1.6 29.1 72 -6.1 21.1
23:25 1023 30.21 853 25.19 -1.6 29.1 71 -6.2 20.9
23:30 1023 30.21 853 25.19 -1.5 29.3 70 -6.2 20.8
23:35 1023 30.21 853 25.19 -1.4 29.6 70 -6.1 21
23:40 1023 30.21 853 25.19 -1.4 29.4 70 -6.1 20.9
23:45 1023 30.21 853 25.19 -1.7 28.9 72 -6.1 21
23:50 1023 30.21 853 25.19 -2 28.5 72 -6.3 20.7
23:55 1023 30.21 852 25.16 -1.7 28.9 70 -6.6 20.2
24:00 1023 30.21 852 25.16 -1.3 29.6 69 -6.4 20.5